Time;durP1;ratioP1;P1;durP2;ratioP2;P2;SDS_P1;SDS_P2;PMS_P1;PMS_P2;Temp;Humidity;BMP_temperature;BMP_pressure;BME280_temperature;BME280_humidity;BME280_pressure;Samples;Min_cycle;Max_cycle;Signal;HPM_P1;HPM_P2
2024/03/05 00:00:31;;;;;;;;;;;19.60;49.20;;;;;;1499637;79;731;-74
2024/03/05 00:02:33;;;;;;;;;;;19.60;49.20;;;;;;1490662;79;1115;-73
2024/03/05 00:04:35;;;;;;;;;;;19.50;49.30;;;;;;1548022;75;642;-73
2024/03/05 00:06:37;;;;;;;;;;;19.50;49.20;;;;;;1541560;75;753;-73
2024/03/05 00:08:39;;;;;;;;;;;19.50;49.30;;;;;;1502293;78;1465;-72
2024/03/05 00:10:41;;;;;;;;;;;19.60;49.40;;;;;;1493659;77;1157;-74
2024/03/05 00:12:43;;;;;;;;;;;19.50;49.50;;;;;;1496220;78;749;-73
2024/03/05 00:14:45;;;;;;;;;;;19.50;49.40;;;;;;1490123;78;626;-73
2024/03/05 00:16:47;;;;;;;;;;;19.50;49.40;;;;;;1480119;78;1927;-74
2024/03/05 00:18:49;;;;;;;;;;;19.60;49.30;;;;;;1518425;76;609;-72
2024/03/05 00:20:51;;;;;;;;;;;19.50;49.40;;;;;;1491129;78;1142;-73
2024/03/05 00:22:53;;;;;;;;;;;19.50;49.40;;;;;;1518599;76;1574;-75
2024/03/05 00:24:55;;;;;;;;;;;19.50;49.40;;;;;;1478152;78;909;-74
2024/03/05 00:26:56;;;;;;;;;;;19.60;49.40;;;;;;1484810;78;700;-72
2024/03/05 00:29:02;;;;;;;;;;;19.60;49.40;;;;;;1483551;78;774;-76
2024/03/05 00:31:02;;;;;;;;;;;19.60;49.80;;;;;;1500606;77;1124;-73
2024/03/05 00:33:06;;;;;;;;;;;19.60;49.60;;;;;;1482537;78;945;-72
2024/03/05 00:35:09;;;;;;;;;;;19.60;49.50;;;;;;1504356;78;697;-74
2024/03/05 00:37:10;;;;;;;;;;;19.60;49.50;;;;;;1494860;78;1926;-72
2024/03/05 00:39:12;;;;;;;;;;;19.50;49.60;;;;;;1498765;78;686;-71
2024/03/05 00:41:16;;;;;;;;;;;19.60;49.60;;;;;;1504598;78;1196;-71
2024/03/05 00:43:18;;;;;;;;;;;19.60;49.50;;;;;;1504501;78;701;-72
2024/03/05 00:45:21;;;;;;;;;;;19.50;49.50;;;;;;1499405;78;687;-75
2024/03/05 00:47:23;;;;;;;;;;;19.50;49.50;;;;;;1503638;78;737;-75
2024/03/05 00:49:25;;;;;;;;;;;19.50;49.50;;;;;;1501722;78;673;-76
2024/03/05 00:51:27;;;;;;;;;;;19.60;49.60;;;;;;1503165;78;1476;-73
2024/03/05 00:53:28;;;;;;;;;;;19.60;49.60;;;;;;1508976;78;671;-72
2024/03/05 00:55:31;;;;;;;;;;;19.50;49.60;;;;;;1502051;78;687;-73
2024/03/05 00:57:33;;;;;;;;;;;19.60;49.60;;;;;;1507747;78;1937;-75
2024/03/05 00:59:34;;;;;;;;;;;19.50;49.50;;;;;;1505840;78;702;-73
2024/03/05 01:01:36;;;;;;;;;;;19.60;49.60;;;;;;1496478;78;1120;-74
2024/03/05 01:03:38;;;;;;;;;;;19.50;49.50;;;;;;1504832;77;737;-72
2024/03/05 01:05:41;;;;;;;;;;;19.60;49.60;;;;;;1495297;78;1593;-76
2024/03/05 01:07:42;;;;;;;;;;;19.60;49.60;;;;;;1503419;78;719;-76
2024/03/05 01:09:44;;;;;;;;;;;19.50;49.60;;;;;;1501592;78;645;-77
2024/03/05 01:11:46;;;;;;;;;;;19.60;49.80;;;;;;1504814;78;1235;-76
2024/03/05 01:13:48;;;;;;;;;;;19.60;49.70;;;;;;1499749;78;681;-75
2024/03/05 01:15:50;;;;;;;;;;;19.60;49.80;;;;;;1497568;78;774;-77
2024/03/05 01:17:52;;;;;;;;;;;19.60;49.80;;;;;;1494023;78;1942;-75
2024/03/05 01:19:54;;;;;;;;;;;19.50;49.80;;;;;;1500311;78;1575;-71
2024/03/05 01:21:58;;;;;;;;;;;19.60;49.90;;;;;;1502668;78;1202;-76
2024/03/05 01:24:01;;;;;;;;;;;19.60;49.80;;;;;;1505635;78;653;-76
2024/03/05 01:26:03;;;;;;;;;;;19.60;49.90;;;;;;1511056;78;742;-75
2024/03/05 01:28:05;;;;;;;;;;;19.60;49.90;;;;;;1495045;78;656;-75
2024/03/05 01:30:11;;;;;;;;;;;19.60;49.90;;;;;;1500694;78;677;-74
2024/03/05 01:32:13;;;;;;;;;;;19.50;49.90;;;;;;1498614;78;1177;-75
2024/03/05 01:34:15;;;;;;;;;;;19.50;49.90;;;;;;1504446;78;1562;-77
2024/03/05 01:36:19;;;;;;;;;;;19.50;49.90;;;;;;1506326;78;799;-75
2024/03/05 01:38:21;;;;;;;;;;;19.60;50.00;;;;;;1508278;78;1936;-76
2024/03/05 01:40:22;;;;;;;;;;;19.60;50.00;;;;;;1507907;78;713;-76
2024/03/05 01:42:24;;;;;;;;;;;19.60;49.90;;;;;;1511067;77;1161;-75
2024/03/05 01:44:28;;;;;;;;;;;19.60;50.00;;;;;;1511563;78;677;-74
2024/03/05 01:46:30;;;;;;;;;;;19.60;50.00;;;;;;1505822;78;719;-76
2024/03/05 01:48:32;;;;;;;;;;;19.60;50.00;;;;;;1505362;78;1567;-76
2024/03/05 01:50:35;;;;;;;;;;;19.50;50.00;;;;;;1506965;78;731;-76
2024/03/05 01:52:37;;;;;;;;;;;19.60;50.10;;;;;;1508081;78;1159;-76
2024/03/05 01:54:39;;;;;;;;;;;19.60;50.10;;;;;;1504006;78;749;-75
2024/03/05 01:56:42;;;;;;;;;;;19.60;50.00;;;;;;1508968;78;667;-76
2024/03/05 01:58:44;;;;;;;;;;;19.50;50.10;;;;;;1507795;78;1935;-75
2024/03/05 02:00:46;;;;;;;;;;;19.60;50.10;;;;;;1504513;78;1131;-76
2024/03/05 02:02:49;;;;;;;;;;;19.60;50.10;;;;;;1507896;78;1678;-76
2024/03/05 02:04:51;;;;;;;;;;;19.60;50.10;;;;;;1511411;78;683;-74
2024/03/05 02:06:52;;;;;;;;;;;19.50;50.10;;;;;;1517844;78;766;-75
2024/03/05 02:08:54;;;;;;;;;;;19.60;50.10;;;;;;1508678;78;794;-73
2024/03/05 02:10:56;;;;;;;;;;;19.60;50.10;;;;;;1509526;77;1144;-75
2024/03/05 02:12:58;;;;;;;;;;;19.50;50.10;;;;;;1516508;78;692;-76
2024/03/05 02:15:00;;;;;;;;;;;19.60;50.10;;;;;;1500312;78;1570;-77
2024/03/05 02:17:02;;;;;;;;;;;19.60;50.20;;;;;;1510951;78;1926;-74
2024/03/05 02:19:04;;;;;;;;;;;19.60;50.20;;;;;;1506927;78;720;-76
2024/03/05 02:21:06;;;;;;;;;;;19.60;50.20;;;;;;1509233;76;1134;-77
2024/03/05 02:23:08;;;;;;;;;;;19.60;50.20;;;;;;1502097;78;729;-77
2024/03/05 02:25:10;;;;;;;;;;;19.60;50.10;;;;;;1505838;78;705;-76
2024/03/05 02:27:12;;;;;;;;;;;19.60;50.20;;;;;;1503806;78;687;-76
2024/03/05 02:29:13;;;;;;;;;;;19.60;50.20;;;;;;1506636;78;1583;-76
2024/03/05 02:31:15;;;;;;;;;;;19.60;50.20;;;;;;1505884;78;1146;-70
2024/03/05 02:33:17;;;;;;;;;;;19.60;50.30;;;;;;1504981;78;590;-72
2024/03/05 02:35:19;;;;;;;;;;;19.60;50.30;;;;;;1507088;78;661;-75
2024/03/05 02:37:21;;;;;;;;;;;19.60;50.20;;;;;;1508273;78;1939;-76
2024/03/05 02:39:23;;;;;;;;;;;19.60;50.30;;;;;;1506168;78;762;-70
2024/03/05 02:41:25;;;;;;;;;;;19.60;50.20;;;;;;1508013;78;1148;-77
2024/03/05 02:43:27;;;;;;;;;;;19.60;50.30;;;;;;1509558;78;1430;-76
2024/03/05 02:45:29;;;;;;;;;;;19.60;50.20;;;;;;1508335;77;663;-76
2024/03/05 02:47:32;;;;;;;;;;;19.60;50.30;;;;;;1507539;78;746;-76
2024/03/05 02:49:36;;;;;;;;;;;19.60;50.30;;;;;;1511991;78;705;-76
2024/03/05 02:51:39;;;;;;;;;;;19.60;50.30;;;;;;1505849;78;1171;-75
2024/03/05 02:53:41;;;;;;;;;;;19.60;50.30;;;;;;1511031;78;755;-76
2024/03/05 02:55:43;;;;;;;;;;;19.60;50.40;;;;;;1511887;78;778;-72
2024/03/05 02:57:46;;;;;;;;;;;19.60;50.30;;;;;;1512820;78;1930;-73
2024/03/05 02:59:47;;;;;;;;;;;19.60;50.40;;;;;;1502855;78;685;-76
2024/03/05 03:01:50;;;;;;;;;;;19.60;50.40;;;;;;1515413;77;1184;-75
2024/03/05 03:03:52;;;;;;;;;;;19.60;50.50;;;;;;1507589;78;696;-75
2024/03/05 03:05:53;;;;;;;;;;;19.60;50.40;;;;;;1506045;78;657;-75
2024/03/05 03:07:56;;;;;;;;;;;19.60;50.40;;;;;;1506744;77;613;-76
2024/03/05 03:09:57;;;;;;;;;;;19.60;50.40;;;;;;1510625;78;670;-69
2024/03/05 03:11:59;;;;;;;;;;;19.60;50.40;;;;;;1508898;77;1599;-76
2024/03/05 03:14:03;;;;;;;;;;;19.60;50.50;;;;;;1512811;78;872;-74
2024/03/05 03:16:05;;;;;;;;;;;19.60;50.50;;;;;;1509410;77;728;-75
2024/03/05 03:18:07;;;;;;;;;;;19.60;50.60;;;;;;1512367;77;1923;-76
2024/03/05 03:20:09;;;;;;;;;;;19.60;50.50;;;;;;1515914;77;660;-76
2024/03/05 03:22:13;;;;;;;;;;;19.60;50.60;;;;;;1505748;78;1114;-76
2024/03/05 03:24:15;;;;;;;;;;;19.60;50.60;;;;;;1512388;78;719;-75
2024/03/05 03:26:17;;;;;;;;;;;19.60;50.60;;;;;;1515581;78;1325;-75
2024/03/05 03:28:18;;;;;;;;;;;19.60;50.60;;;;;;1508312;78;726;-75
2024/03/05 03:30:20;;;;;;;;;;;19.60;50.70;;;;;;1511317;77;676;-75
2024/03/05 03:32:22;;;;;;;;;;;19.60;50.60;;;;;;1503398;78;1118;-75
2024/03/05 03:34:24;;;;;;;;;;;19.60;50.60;;;;;;1505310;78;725;-75
2024/03/05 03:36:27;;;;;;;;;;;19.60;50.60;;;;;;1510146;78;802;-76
2024/03/05 03:38:29;;;;;;;;;;;19.60;50.70;;;;;;1506607;78;1916;-75
2024/03/05 03:40:33;;;;;;;;;;;19.60;50.70;;;;;;1511861;78;1549;-74
2024/03/05 03:42:35;;;;;;;;;;;19.60;50.70;;;;;;1511429;78;1654;-75
2024/03/05 03:44:37;;;;;;;;;;;19.60;50.70;;;;;;1513081;78;747;-73
2024/03/05 03:46:39;;;;;;;;;;;19.60;50.70;;;;;;1502771;78;713;-75
2024/03/05 03:48:41;;;;;;;;;;;19.60;50.70;;;;;;1512202;78;794;-74
2024/03/05 03:50:43;;;;;;;;;;;19.60;50.70;;;;;;1511759;78;1154;-75
2024/03/05 03:52:45;;;;;;;;;;;19.60;50.70;;;;;;1515845;78;697;-75
2024/03/05 03:54:48;;;;;;;;;;;19.60;50.70;;;;;;1503411;78;1618;-75
2024/03/05 03:56:50;;;;;;;;;;;19.60;50.80;;;;;;1513200;77;682;-76
2024/03/05 03:58:53;;;;;;;;;;;19.60;50.70;;;;;;1518628;77;1920;-72
2024/03/05 04:00:55;;;;;;;;;;;19.60;50.80;;;;;;1513257;77;1162;-76
2024/03/05 04:02:57;;;;;;;;;;;19.60;50.80;;;;;;1514546;78;667;-76
2024/03/05 04:04:58;;;;;;;;;;;19.60;50.80;;;;;;1512765;78;656;-72
2024/03/05 04:07:00;;;;;;;;;;;19.60;50.80;;;;;;1515135;77;586;-75
2024/03/05 04:09:03;;;;;;;;;;;19.60;50.80;;;;;;1513506;78;1523;-74
2024/03/05 04:11:06;;;;;;;;;;;19.60;50.80;;;;;;1517940;78;1114;-71
2024/03/05 04:13:08;;;;;;;;;;;19.60;50.80;;;;;;1510930;77;633;-73
2024/03/05 04:15:12;;;;;;;;;;;19.60;50.90;;;;;;1512524;78;749;-74
2024/03/05 04:17:14;;;;;;;;;;;19.60;51.00;;;;;;1513044;78;1125;-73
2024/03/05 04:19:16;;;;;;;;;;;19.60;51.10;;;;;;1514434;78;1917;-77
2024/03/05 04:21:18;;;;;;;;;;;19.60;51.10;;;;;;1519760;78;1217;-78
2024/03/05 04:23:20;;;;;;;;;;;19.60;51.20;;;;;;1514054;78;1555;-78
2024/03/05 04:25:25;;;;;;;;;;;19.60;51.10;;;;;;1506680;78;759;-74
2024/03/05 04:27:27;;;;;;;;;;;19.60;51.20;;;;;;1513287;78;1964;-76
2024/03/05 04:29:30;;;;;;;;;;;19.60;51.30;;;;;;1510062;78;672;-77
2024/03/05 04:31:34;;;;;;;;;;;19.60;51.20;;;;;;1519941;78;1160;-76
2024/03/05 04:33:38;;;;;;;;;;;19.60;51.20;;;;;;1520480;77;1689;-76
2024/03/05 04:35:42;;;;;;;;;;;19.60;51.30;;;;;;1482735;78;1589;-76
2024/03/05 04:37:43;;;;;;;;;;;19.70;51.60;;;;;;1513449;78;1923;-75
2024/03/05 04:39:46;;;;;;;;;;;19.70;51.60;;;;;;1503889;77;620;-74
2024/03/05 04:41:48;;;;;;;;;;;19.60;51.60;;;;;;1518927;77;1267;-74
2024/03/05 04:43:50;;;;;;;;;;;19.70;51.60;;;;;;1512313;78;654;-75
2024/03/05 04:45:52;;;;;;;;;;;19.60;51.40;;;;;;1508415;78;676;-75
2024/03/05 04:47:54;;;;;;;;;;;19.60;51.40;;;;;;1513446;78;702;-75
2024/03/05 04:49:57;;;;;;;;;;;19.60;51.40;;;;;;1512164;77;1221;-75
2024/03/05 04:51:59;;;;;;;;;;;19.60;51.30;;;;;;1512819;78;1084;-72
2024/03/05 04:54:01;;;;;;;;;;;19.70;51.50;;;;;;1509519;77;623;-74
2024/03/05 04:56:03;;;;;;;;;;;19.60;51.40;;;;;;1509324;78;701;-74
2024/03/05 04:58:05;;;;;;;;;;;19.70;51.50;;;;;;1517358;78;1936;-74
2024/03/05 05:00:28;;;;;;;;;;;19.60;51.40;;;;;;1509375;78;728;-77
2024/03/05 05:02:11;;;;;;;;;;;19.70;51.50;;;;;;1498927;77;1173;-76
2024/03/05 05:04:12;;;;;;;;;;;19.60;51.30;;;;;;1514873;78;1583;-71
2024/03/05 05:06:15;;;;;;;;;;;19.60;51.30;;;;;;1516803;78;785;-77
2024/03/05 05:08:19;;;;;;;;;;;19.70;51.50;;;;;;1514269;77;807;-73
2024/03/05 05:10:20;;;;;;;;;;;19.60;51.30;;;;;;1514040;77;1815;-74
2024/03/05 05:12:22;;;;;;;;;;;19.60;51.20;;;;;;1511950;77;1149;-74
2024/03/05 05:14:24;;;;;;;;;;;19.60;51.20;;;;;;1513520;78;684;-76
2024/03/05 05:16:26;;;;;;;;;;;19.70;51.30;;;;;;1506971;78;904;-75
2024/03/05 05:18:28;;;;;;;;;;;19.60;51.10;;;;;;1500606;78;1931;-73
2024/03/05 05:20:30;;;;;;;;;;;19.60;51.10;;;;;;1508321;78;794;-74
2024/03/05 05:22:32;;;;;;;;;;;19.60;51.10;;;;;;1513700;78;1096;-73
2024/03/05 05:24:34;;;;;;;;;;;19.60;51.10;;;;;;1517164;77;709;-74
2024/03/05 05:26:36;;;;;;;;;;;19.60;51.10;;;;;;1512672;78;800;-74
2024/03/05 05:28:40;;;;;;;;;;;19.60;51.10;;;;;;1510297;78;888;-74
2024/03/05 05:30:42;;;;;;;;;;;19.60;51.10;;;;;;1510155;78;1170;-72
2024/03/05 05:32:44;;;;;;;;;;;19.70;51.30;;;;;;1513837;77;1543;-74
2024/03/05 05:34:46;;;;;;;;;;;19.70;51.30;;;;;;1519675;77;729;-74
2024/03/05 05:36:48;;;;;;;;;;;19.70;51.30;;;;;;1509503;78;777;-74
2024/03/05 05:38:50;;;;;;;;;;;19.70;51.20;;;;;;1514844;78;1933;-76
2024/03/05 05:40:52;;;;;;;;;;;19.70;51.20;;;;;;1512218;78;1176;-75
2024/03/05 05:42:54;;;;;;;;;;;19.70;51.20;;;;;;1514228;78;632;-76
2024/03/05 05:44:56;;;;;;;;;;;19.70;51.30;;;;;;1511178;78;785;-74
2024/03/05 05:46:58;;;;;;;;;;;19.70;51.20;;;;;;1518786;77;1544;-76
2024/03/05 05:49:05;;;;;;;;;;;19.70;51.30;;;;;;1494152;79;716;-76
2024/03/05 05:51:10;;;;;;;;;;;19.60;51.20;;;;;;1497704;78;1160;-74
2024/03/05 05:53:08;;;;;;;;;;;19.70;52.90;;;;;;1497091;78;1133;-75
2024/03/05 05:55:11;;;;;;;;;;;19.70;52.00;;;;;;1495850;78;664;-75
2024/03/05 05:57:12;;;;;;;;;;;19.70;51.80;;;;;;1493193;78;763;-74
2024/03/05 05:59:15;;;;;;;;;;;19.70;51.80;;;;;;1512587;77;1946;-74
2024/03/05 06:01:18;;;;;;;;;;;19.70;51.60;;;;;;1491195;78;1579;-74
2024/03/05 06:03:20;;;;;;;;;;;19.70;51.60;;;;;;1506737;78;617;-76
2024/03/05 06:05:25;;;;;;;;;;;19.70;51.60;;;;;;1502493;78;617;-74
2024/03/05 06:07:27;;;;;;;;;;;19.70;51.80;;;;;;1509801;78;721;-74
2024/03/05 06:09:33;;;;;;;;;;;19.70;51.80;;;;;;1507098;77;722;-72
2024/03/05 06:11:32;;;;;;;;;;;19.70;51.70;;;;;;1500407;78;1579;-71
2024/03/05 06:13:35;;;;;;;;;;;19.70;51.80;;;;;;1498704;78;715;-72
2024/03/05 06:15:38;;;;;;;;;;;19.70;51.90;;;;;;1495083;78;1431;-72
2024/03/05 06:17:40;;;;;;;;;;;19.70;51.90;;;;;;1494833;78;730;-71
2024/03/05 06:19:43;;;;;;;;;;;19.70;52.00;;;;;;1504253;78;1933;-73
2024/03/05 06:21:45;;;;;;;;;;;19.70;52.00;;;;;;1503234;78;1144;-73
2024/03/05 06:23:47;;;;;;;;;;;19.70;52.00;;;;;;1494607;78;809;-73
2024/03/05 06:25:49;;;;;;;;;;;19.70;52.00;;;;;;1504077;78;667;-71
2024/03/05 06:27:52;;;;;;;;;;;19.70;52.00;;;;;;1507202;78;638;-73
2024/03/05 06:29:54;;;;;;;;;;;19.70;52.10;;;;;;1506014;78;1608;-70
2024/03/05 06:31:56;;;;;;;;;;;19.70;52.10;;;;;;1490171;78;1105;-71
2024/03/05 06:33:58;;;;;;;;;;;19.70;52.00;;;;;;1494678;78;688;-73
2024/03/05 06:36:03;;;;;;;;;;;19.70;52.00;;;;;;1492393;78;675;-73
2024/03/05 06:38:06;;;;;;;;;;;19.70;52.00;;;;;;1503097;78;1560;-74
2024/03/05 06:40:09;;;;;;;;;;;19.70;52.10;;;;;;1492998;78;1918;-73
2024/03/05 06:42:13;;;;;;;;;;;19.70;52.10;;;;;;1509886;78;1482;-71
2024/03/05 06:44:17;;;;;;;;;;;19.70;52.00;;;;;;1493234;78;1064;-71
2024/03/05 06:46:18;;;;;;;;;;;19.70;52.00;;;;;;1497673;78;1752;-72
2024/03/05 06:48:23;;;;;;;;;;;19.60;51.90;;;;;;1499542;78;729;-71
2024/03/05 06:50:24;;;;;;;;;;;19.60;51.90;;;;;;1497435;78;1027;-75
2024/03/05 06:57:07;;;;;;;;;;;19.60;51.90;;;;;;1494704;78;1851;-72
2024/03/05 06:59:10;;;;;;;;;;;19.70;52.00;;;;;;1503939;78;1920;-71
2024/03/05 07:01:13;;;;;;;;;;;19.60;51.90;;;;;;1500060;78;1200;-71
2024/03/05 07:03:15;;;;;;;;;;;19.60;51.90;;;;;;1501525;78;670;-73
2024/03/05 07:05:17;;;;;;;;;;;19.60;51.90;;;;;;1502416;78;784;-71
2024/03/05 07:07:19;;;;;;;;;;;19.60;51.90;;;;;;1502313;78;803;-71
2024/03/05 07:09:27;;;;;;;;;;;19.60;51.90;;;;;;1506405;78;664;-73
2024/03/05 07:11:26;;;;;;;;;;;19.60;51.80;;;;;;1502947;78;1621;-73
2024/03/05 07:13:28;;;;;;;;;;;19.60;51.80;;;;;;1499059;78;760;-74
2024/03/05 07:15:30;;;;;;;;;;;19.60;51.90;;;;;;1500041;78;746;-73
2024/03/05 07:17:32;;;;;;;;;;;19.60;51.80;;;;;;1498194;78;716;-71
2024/03/05 07:19:34;;;;;;;;;;;19.60;51.80;;;;;;1499321;78;1947;-70
2024/03/05 07:21:36;;;;;;;;;;;19.60;51.80;;;;;;1509048;78;1196;-69
2024/03/05 07:23:39;;;;;;;;;;;19.60;51.80;;;;;;1494078;78;662;-73
2024/03/05 07:25:43;;;;;;;;;;;19.60;51.80;;;;;;1507360;78;1567;-69
2024/03/05 07:27:45;;;;;;;;;;;19.50;51.80;;;;;;1510537;78;652;-73
2024/03/05 07:29:47;;;;;;;;;;;19.60;51.90;;;;;;1508667;78;748;-72
2024/03/05 07:31:49;;;;;;;;;;;19.60;51.80;;;;;;1502023;78;1131;-72
2024/03/05 07:33:51;;;;;;;;;;;19.50;51.80;;;;;;1501131;78;685;-72
2024/03/05 07:35:53;;;;;;;;;;;19.60;51.80;;;;;;1509323;78;760;-74
2024/03/05 07:37:55;;;;;;;;;;;19.60;51.80;;;;;;1498616;78;701;-73
2024/03/05 07:39:57;;;;;;;;;;;19.60;51.80;;;;;;1493706;78;1938;-72
2024/03/05 07:41:59;;;;;;;;;;;19.60;51.80;;;;;;1503974;78;1161;-73
2024/03/05 07:44:02;;;;;;;;;;;19.50;51.70;;;;;;1501937;78;689;-72
2024/03/05 07:46:04;;;;;;;;;;;19.50;51.70;;;;;;1499228;78;654;-71
2024/03/05 07:48:06;;;;;;;;;;;19.60;51.70;;;;;;1501158;78;713;-73
2024/03/05 07:50:16;;;;;;;;;;;19.60;51.70;;;;;;1498825;78;791;-74
2024/03/05 07:52:15;;;;;;;;;;;19.50;51.60;;;;;;1500148;78;1183;-71
2024/03/05 07:54:17;;;;;;;;;;;19.60;51.70;;;;;;1496060;78;1566;-72
2024/03/05 07:56:18;;;;;;;;;;;19.60;51.70;;;;;;1496928;78;661;-71
2024/03/05 07:58:20;;;;;;;;;;;19.60;51.70;;;;;;1502778;78;675;-71
2024/03/05 08:00:22;;;;;;;;;;;19.60;51.60;;;;;;1506903;78;1931;-72
2024/03/05 08:02:25;;;;;;;;;;;19.60;51.70;;;;;;1501960;77;1140;-73
2024/03/05 08:04:27;;;;;;;;;;;19.60;51.70;;;;;;1502749;78;805;-71
2024/03/05 08:06:30;;;;;;;;;;;19.50;51.60;;;;;;1503287;78;699;-72
2024/03/05 08:08:33;;;;;;;;;;;19.50;51.60;;;;;;1512648;78;1549;-72
2024/03/05 08:10:35;;;;;;;;;;;19.50;51.60;;;;;;1513116;78;703;-72
2024/03/05 08:12:38;;;;;;;;;;;19.60;51.60;;;;;;1508199;78;1215;-71
2024/03/05 08:14:40;;;;;;;;;;;19.50;51.70;;;;;;1511047;78;755;-73
2024/03/05 08:16:41;;;;;;;;;;;19.50;51.60;;;;;;1499885;78;812;-73
2024/03/05 08:18:44;;;;;;;;;;;19.50;51.70;;;;;;1506515;78;599;-72
2024/03/05 08:20:46;;;;;;;;;;;19.50;51.70;;;;;;1506880;78;1896;-71
2024/03/05 08:22:48;;;;;;;;;;;19.50;51.70;;;;;;1502904;78;727;-71
2024/03/05 08:24:50;;;;;;;;;;;19.50;51.70;;;;;;1499359;78;786;-72
2024/03/05 08:26:51;;;;;;;;;;;19.60;51.70;;;;;;1512766;78;688;-73
2024/03/05 08:28:53;;;;;;;;;;;19.50;51.60;;;;;;1503497;78;667;-74
2024/03/05 08:30:55;;;;;;;;;;;19.60;51.70;;;;;;1502210;78;1144;-73
2024/03/05 08:32:57;;;;;;;;;;;19.50;51.60;;;;;;1507760;78;647;-71
2024/03/05 08:34:59;;;;;;;;;;;19.50;51.50;;;;;;1503797;78;1549;-73
2024/03/05 08:37:01;;;;;;;;;;;19.60;51.60;;;;;;1502740;78;759;-73
2024/03/05 08:39:05;;;;;;;;;;;19.60;51.60;;;;;;1499690;78;729;-72
2024/03/05 08:41:07;;;;;;;;;;;19.50;51.60;;;;;;1509567;78;1933;-71
2024/03/05 08:43:09;;;;;;;;;;;19.60;51.50;;;;;;1501652;78;690;-71
2024/03/05 08:45:12;;;;;;;;;;;19.60;51.50;;;;;;1501391;78;754;-73
2024/03/05 08:47:14;;;;;;;;;;;19.50;51.50;;;;;;1498869;78;761;-73
2024/03/05 08:49:16;;;;;;;;;;;19.50;51.50;;;;;;1503852;78;1519;-72
2024/03/05 08:51:18;;;;;;;;;;;19.60;51.60;;;;;;1500952;78;1133;-72
2024/03/05 08:53:20;;;;;;;;;;;19.50;51.50;;;;;;1497434;78;681;-71
2024/03/05 08:55:23;;;;;;;;;;;19.50;51.50;;;;;;1496360;78;643;-71
2024/03/05 08:57:26;;;;;;;;;;;19.50;51.60;;;;;;1493165;78;667;-72
2024/03/05 08:59:28;;;;;;;;;;;19.60;51.60;;;;;;1493070;78;1908;-72
2024/03/05 09:01:29;;;;;;;;;;;19.60;51.50;;;;;;1502109;78;1152;-72
2024/03/05 09:03:31;;;;;;;;;;;19.60;51.60;;;;;;1502092;78;1597;-70
2024/03/05 09:05:34;;;;;;;;;;;19.50;51.60;;;;;;1502032;78;716;-71
2024/03/05 09:07:37;;;;;;;;;;;19.50;51.50;;;;;;1514147;78;699;-72
2024/03/05 09:09:39;;;;;;;;;;;19.60;51.50;;;;;;1502482;78;706;-73
2024/03/05 09:11:41;;;;;;;;;;;19.60;51.50;;;;;;1507105;78;1192;-72
2024/03/05 09:13:46;;;;;;;;;;;19.60;51.50;;;;;;1508000;78;751;-72
2024/03/05 09:15:46;;;;;;;;;;;19.60;51.50;;;;;;1498803;78;1725;-71
2024/03/05 09:17:48;;;;;;;;;;;19.50;51.50;;;;;;1507314;78;1345;-71
2024/03/05 09:19:50;;;;;;;;;;;19.60;51.50;;;;;;1494467;78;1924;-72
2024/03/05 09:21:52;;;;;;;;;;;19.60;51.50;;;;;;1498663;78;1129;-69
2024/03/05 09:23:54;;;;;;;;;;;19.60;51.50;;;;;;1499797;78;739;-73
2024/03/05 09:25:56;;;;;;;;;;;19.50;51.50;;;;;;1494597;78;668;-72
2024/03/05 09:27:58;;;;;;;;;;;19.60;51.50;;;;;;1496440;78;701;-73
2024/03/05 09:30:00;;;;;;;;;;;19.60;51.50;;;;;;1504773;78;693;-72
2024/03/05 09:32:03;;;;;;;;;;;19.60;51.40;;;;;;1496504;78;1612;-73
2024/03/05 09:34:05;;;;;;;;;;;19.60;51.50;;;;;;1503681;78;770;-71
2024/03/05 09:36:08;;;;;;;;;;;19.60;51.40;;;;;;1499956;78;674;-74
2024/03/05 09:38:13;;;;;;;;;;;19.60;51.50;;;;;;1497032;78;678;-73
2024/03/05 09:40:20;;;;;;;;;;;19.60;51.50;;;;;;1498355;78;1958;-72
2024/03/05 09:42:22;;;;;;;;;;;19.60;51.50;;;;;;1502656;78;1177;-72
2024/03/05 09:44:25;;;;;;;;;;;19.60;51.50;;;;;;1494509;78;707;-69
2024/03/05 09:46:26;;;;;;;;;;;19.60;51.50;;;;;;1495594;78;1340;-70
2024/03/05 09:48:28;;;;;;;;;;;19.60;51.40;;;;;;1497211;78;683;-73
2024/03/05 09:50:31;;;;;;;;;;;19.60;51.40;;;;;;1507135;78;690;-73
2024/03/05 09:52:33;;;;;;;;;;;19.60;51.50;;;;;;1497236;78;1136;-71
2024/03/05 09:54:36;;;;;;;;;;;19.60;51.40;;;;;;1498375;78;660;-72
2024/03/05 09:56:41;;;;;;;;;;;19.60;51.40;;;;;;1499778;78;708;-73
2024/03/05 09:58:42;;;;;;;;;;;19.60;51.40;;;;;;1497648;78;1687;-71
2024/03/05 10:00:44;;;;;;;;;;;19.60;51.40;;;;;;1498234;78;1946;-73
2024/03/05 10:02:48;;;;;;;;;;;19.60;51.40;;;;;;1496905;78;755;-73
2024/03/05 10:04:50;;;;;;;;;;;19.60;51.40;;;;;;1504241;78;1037;-71
2024/03/05 10:06:52;;;;;;;;;;;19.50;51.30;;;;;;1507638;78;767;-72
2024/03/05 10:08:54;;;;;;;;;;;19.50;51.30;;;;;;1507522;78;609;-72
2024/03/05 10:11:02;;;;;;;;;;;19.60;51.40;;;;;;1500057;78;1170;-73
2024/03/05 10:13:04;;;;;;;;;;;19.60;51.30;;;;;;1501306;78;753;-74
2024/03/05 10:15:13;;;;;;;;;;;19.60;51.30;;;;;;1482781;79;1417;-72
2024/03/05 10:17:15;;;;;;;;;;;19.60;51.30;;;;;;1506998;78;1838;-73
2024/03/05 10:19:18;;;;;;;;;;;19.50;51.30;;;;;;1502137;78;683;-71
2024/03/05 10:21:22;;;;;;;;;;;19.50;51.30;;;;;;1496258;78;1934;-72
2024/03/05 10:23:24;;;;;;;;;;;19.60;51.30;;;;;;1499868;78;658;-72
2024/03/05 10:25:26;;;;;;;;;;;19.60;51.30;;;;;;1505961;78;886;-73
2024/03/05 10:27:28;;;;;;;;;;;19.60;51.30;;;;;;1505194;78;1534;-73
2024/03/05 10:29:34;;;;;;;;;;;19.60;51.30;;;;;;1505500;78;691;-72
2024/03/05 10:31:38;;;;;;;;;;;19.50;51.30;;;;;;1496997;78;1169;-72
2024/03/05 10:33:40;;;;;;;;;;;19.60;51.30;;;;;;1495574;78;705;-74
2024/03/05 10:35:42;;;;;;;;;;;19.60;51.20;;;;;;1496431;77;679;-71
2024/03/05 10:37:44;;;;;;;;;;;19.60;51.20;;;;;;1476962;79;1173;-74
2024/03/05 10:39:46;;;;;;;;;;;19.50;51.20;;;;;;1499394;78;673;-73
2024/03/05 10:41:48;;;;;;;;;;;19.50;51.30;;;;;;1508899;78;1940;-72
2024/03/05 10:43:51;;;;;;;;;;;19.60;51.20;;;;;;1482753;79;1211;-72
2024/03/05 10:45:53;;;;;;;;;;;19.50;51.30;;;;;;1551732;75;698;-72
2024/03/05 10:47:58;;;;;;;;;;;19.60;51.30;;;;;;1536894;75;687;-73
2024/03/05 10:49:58;;;;;;;;;;;19.60;51.20;;;;;;1538835;75;1250;-73
2024/03/05 10:52:00;;;;;;;;;;;19.50;51.20;;;;;;1547695;75;1134;-74
2024/03/05 10:54:02;;;;;;;;;;;19.60;51.20;;;;;;1536858;75;761;-72
2024/03/05 10:56:04;;;;;;;;;;;19.50;51.20;;;;;;1536245;75;1560;-74
2024/03/05 11:00:15;;;;;;;;;;;19.60;51.20;;;;;;1536076;75;1924;-71
2024/03/05 11:02:17;;;;;;;;;;;19.50;51.10;;;;;;1538767;75;1107;-72
2024/03/05 11:04:22;;;;;;;;;;;19.50;51.10;;;;;;1538355;75;729;-71
2024/03/05 11:06:24;;;;;;;;;;;19.50;51.10;;;;;;1548866;75;736;-74
2024/03/05 11:08:26;;;;;;;;;;;19.50;51.20;;;;;;1543281;75;747;-72
2024/03/05 11:10:27;;;;;;;;;;;19.50;51.20;;;;;;1558542;75;1552;-74
2024/03/05 11:12:29;;;;;;;;;;;19.50;51.10;;;;;;1540039;75;1166;-72
2024/03/05 11:14:33;;;;;;;;;;;19.50;51.10;;;;;;1532125;75;700;-73
2024/03/05 11:16:35;;;;;;;;;;;19.50;51.00;;;;;;1548308;75;732;-71
2024/03/05 11:18:37;;;;;;;;;;;19.60;51.10;;;;;;1558620;75;718;-73
2024/03/05 11:20:47;;;;;;;;;;;19.60;51.10;;;;;;1545838;75;1916;-72
2024/03/05 11:22:46;;;;;;;;;;;19.60;51.00;;;;;;1544606;75;1477;-72
2024/03/05 11:24:47;;;;;;;;;;;19.50;51.10;;;;;;1539320;75;1191;-73
2024/03/05 11:26:49;;;;;;;;;;;19.50;51.00;;;;;;1524275;77;1204;-71
2024/03/05 11:28:53;;;;;;;;;;;19.60;51.00;;;;;;1530227;76;1118;-73
2024/03/05 11:30:56;;;;;;;;;;;19.50;51.10;;;;;;1547598;75;2230;-72
2024/03/05 11:33:00;;;;;;;;;;;19.60;51.00;;;;;;1529029;75;1812;-75
2024/03/05 11:35:02;;;;;;;;;;;19.50;51.00;;;;;;1546142;75;2085;-70
2024/03/05 11:37:07;;;;;;;;;;;19.50;51.00;;;;;;1536315;75;846;-71
2024/03/05 11:39:09;;;;;;;;;;;19.60;51.00;;;;;;1537473;75;1472;-72
2024/03/05 11:41:13;;;;;;;;;;;19.50;51.00;;;;;;1547487;75;1944;-74
2024/03/05 11:43:16;;;;;;;;;;;19.50;51.00;;;;;;1544911;75;1903;-70
2024/03/05 11:45:36;;;;;;;;;;;19.50;51.00;;;;;;1528224;75;1112;-72
2024/03/05 11:47:38;;;;;;;;;;;19.50;51.00;;;;;;1542765;75;511;-74
2024/03/05 11:49:40;;;;;;;;;;;19.50;51.00;;;;;;1513311;76;1247;-72
2024/03/05 11:51:43;;;;;;;;;;;19.50;51.00;;;;;;1533679;75;1617;-71
2024/03/05 11:53:46;;;;;;;;;;;19.50;51.00;;;;;;1549322;75;700;-73
2024/03/05 11:55:51;;;;;;;;;;;19.60;51.00;;;;;;1538789;75;793;-71
2024/03/05 11:57:58;;;;;;;;;;;19.60;50.90;;;;;;1497990;79;1602;-71
2024/03/05 11:59:59;;;;;;;;;;;19.50;51.00;;;;;;1498094;78;676;-72
2024/03/05 12:02:01;;;;;;;;;;;19.50;50.90;;;;;;1493605;78;1938;-71
2024/03/05 12:04:07;;;;;;;;;;;19.50;51.00;;;;;;1489003;79;740;-73
2024/03/05 12:06:07;;;;;;;;;;;19.60;51.00;;;;;;1492261;79;1754;-74
2024/03/05 12:08:10;;;;;;;;;;;19.50;51.00;;;;;;1505740;79;681;-72
2024/03/05 12:10:14;;;;;;;;;;;19.60;51.00;;;;;;1494213;79;681;-72
2024/03/05 12:12:16;;;;;;;;;;;19.50;50.90;;;;;;1494534;79;1169;-72
2024/03/05 12:14:18;;;;;;;;;;;19.60;51.00;;;;;;1489381;78;749;-72